createdAt,value
2023-03-16T00:01:30.502Z,-1.71
2023-03-16T00:03:58.529Z,-1.74
2023-03-16T00:06:26.977Z,-1.77
2023-03-16T00:08:59.157Z,-1.78
2023-03-16T00:11:27.919Z,-1.81
2023-03-16T00:13:55.965Z,-1.82
2023-03-16T00:16:23.804Z,-1.83
2023-03-16T00:18:51.564Z,-1.84
2023-03-16T00:21:19.462Z,-1.84
2023-03-16T00:23:47.597Z,-1.86
2023-03-16T00:26:16.722Z,-1.84
2023-03-16T00:28:54.353Z,-1.86
2023-03-16T00:31:25.032Z,-1.88
2023-03-16T00:33:54.448Z,-1.91
2023-03-16T00:36:22.872Z,-1.93
2023-03-16T00:38:50.663Z,-1.96
2023-03-16T00:41:19.913Z,-1.96
2023-03-16T00:43:49.042Z,-2.01
2023-03-16T00:46:18.837Z,-2.03
2023-03-16T00:48:48.591Z,-2.05
2023-03-16T00:51:18.217Z,-2.07
2023-03-16T00:53:47.730Z,-2.08
2023-03-16T00:56:15.954Z,-2.08
2023-03-16T00:58:45.520Z,-2.11
2023-03-16T01:01:16.255Z,-2.16
2023-03-16T01:03:45.592Z,-2.19
2023-03-16T01:06:17.216Z,-2.19
2023-03-16T01:08:45.811Z,-2.23
2023-03-16T01:11:16.596Z,-2.24
2023-03-16T01:13:48.113Z,-2.25
2023-03-16T01:16:16.732Z,-2.27
2023-03-16T01:18:44.525Z,-2.29
2023-03-16T01:21:14.048Z,-2.32
2023-03-16T01:23:44.966Z,-2.34
2023-03-16T01:26:15.237Z,-2.34
2023-03-16T01:28:45.322Z,-2.36
2023-03-16T01:31:15.540Z,-2.39
2023-03-16T01:33:45.819Z,-2.40
2023-03-16T01:36:19.275Z,-2.43
2023-03-16T01:38:57.979Z,-2.45
2023-03-16T01:41:28.701Z,-2.46
2023-03-16T01:43:58.699Z,-2.48
2023-03-16T01:46:29.870Z,-2.52
2023-03-16T01:49:06.539Z,-2.53
2023-03-16T01:51:39.333Z,-2.55
2023-03-16T01:54:11.002Z,-2.54
2023-03-16T01:56:43.053Z,-2.55
2023-03-16T01:59:15.381Z,-2.56
2023-03-16T02:01:47.161Z,-2.56
2023-03-16T02:04:33.971Z,-2.57
2023-03-16T02:07:04.750Z,-2.58
2023-03-16T02:09:33.176Z,-2.59
2023-03-16T02:12:01.954Z,-2.60
2023-03-16T02:14:31.774Z,-2.60
2023-03-16T02:17:01.148Z,-2.60
2023-03-16T02:19:39.124Z,-2.60
2023-03-16T02:22:09.826Z,-2.62
2023-03-16T02:24:38.543Z,-2.63
2023-03-16T02:27:10.418Z,-2.64
2023-03-16T02:29:58.225Z,-2.66
2023-03-16T02:32:31.681Z,-2.66
2023-03-16T02:35:02.950Z,-2.68
2023-03-16T02:37:33.836Z,-2.69
2023-03-16T02:40:01.966Z,-2.71
2023-03-16T02:42:31.467Z,-2.73
2023-03-16T02:45:02.559Z,-2.75
2023-03-16T02:47:42.898Z,-2.76
2023-03-16T02:50:12.500Z,-2.78
2023-03-16T02:52:41.216Z,-2.79
2023-03-16T02:55:09.971Z,-2.84
2023-03-16T02:57:37.879Z,-2.83
2023-03-16T03:00:18.310Z,-2.84
2023-03-16T03:02:49.399Z,-2.86
2023-03-16T03:05:17.302Z,-2.87
2023-03-16T03:07:45.386Z,-2.90
2023-03-16T03:10:14.251Z,-2.89
2023-03-16T03:12:49.350Z,-2.91
2023-03-16T03:15:19.878Z,-2.93
2023-03-16T03:17:58.372Z,-2.92
2023-03-16T03:20:31.127Z,-2.94
2023-03-16T03:22:58.983Z,-2.95
2023-03-16T03:25:27.590Z,-2.97
2023-03-16T03:27:58.134Z,-2.98
2023-03-16T03:30:28.028Z,-3.00
2023-03-16T03:32:56.418Z,-3.03
2023-03-16T03:35:26.850Z,-3.04
2023-03-16T03:37:55.799Z,-3.06
2023-03-16T03:40:24.716Z,-3.06
2023-03-16T03:42:58.537Z,-3.07
2023-03-16T03:45:28.538Z,-3.08
2023-03-16T03:47:57.759Z,-3.09
2023-03-16T03:50:26.092Z,-3.09
2023-03-16T03:53:02.277Z,-3.10
2023-03-16T03:55:33.103Z,-3.14
2023-03-16T03:58:02.107Z,-3.16
2023-03-16T04:00:31.689Z,-3.18
2023-03-16T04:02:59.792Z,-3.22
2023-03-16T04:05:35.470Z,-3.24
2023-03-16T04:08:03.356Z,-3.25
2023-03-16T04:10:33.673Z,-3.28
2023-03-16T04:13:02.504Z,-3.31
2023-03-16T04:15:38.702Z,-3.34
2023-03-16T04:18:18.197Z,-3.36
2023-03-16T04:20:46.442Z,-3.41
2023-03-16T04:23:18.809Z,-3.44
2023-03-16T04:25:52.873Z,-3.47
2023-03-16T04:28:22.717Z,-3.49
2023-03-16T04:30:56.232Z,-3.52
2023-03-16T04:33:33.200Z,-3.54
2023-03-16T04:36:02.672Z,-3.55
2023-03-16T04:38:33.744Z,-3.57
2023-03-16T04:41:02.880Z,-3.58
2023-03-16T04:43:35.730Z,-3.60
2023-03-16T04:46:14.960Z,-3.63
2023-03-16T04:48:43.046Z,-3.64
2023-03-16T04:51:11.497Z,-3.67
2023-03-16T04:53:45.333Z,-3.69
2023-03-16T04:56:21.645Z,-3.71
2023-03-16T04:58:57.005Z,-3.71
2023-03-16T05:01:29.143Z,-3.74
2023-03-16T05:03:59.969Z,-3.76
2023-03-16T05:06:29.605Z,-3.79
2023-03-16T05:09:01.081Z,-3.82
2023-03-16T05:11:30.770Z,-3.84
2023-03-16T05:14:02.434Z,-3.85
2023-03-16T05:16:33.943Z,-3.87
2023-03-16T05:19:03.093Z,-3.91
2023-03-16T05:21:35.684Z,-3.93
2023-03-16T05:24:06.293Z,-3.96
2023-03-16T05:26:35.085Z,-3.98
2023-03-16T05:29:04.511Z,-3.99
2023-03-16T05:31:33.482Z,-4.01
2023-03-16T05:34:05.443Z,-4.03
2023-03-16T05:36:35.929Z,-4.05
2023-03-16T05:39:09.907Z,-4.06
2023-03-16T05:41:42.455Z,-4.07
2023-03-16T05:44:22.270Z,-4.10
2023-03-16T05:47:03.789Z,-4.10
2023-03-16T05:49:35.363Z,-4.12
2023-03-16T05:52:07.270Z,-4.13
2023-03-16T05:54:36.656Z,-4.14
2023-03-16T05:57:07.080Z,-4.13
2023-03-16T05:59:36.399Z,-4.13
2023-03-16T06:02:05.655Z,-4.11
2023-03-16T06:04:36.750Z,-4.11
2023-03-16T06:07:05.130Z,-4.10
2023-03-16T06:09:33.120Z,-4.09
2023-03-16T06:12:02.062Z,-4.08
2023-03-16T06:14:31.445Z,-4.05
2023-03-16T06:17:00.687Z,-4.02
2023-03-16T06:19:31.921Z,-4.00
2023-03-16T06:22:03.289Z,-3.97
2023-03-16T06:24:32.105Z,-3.94
2023-03-16T06:27:00.377Z,-3.93
2023-03-16T06:29:34.589Z,-3.91
2023-03-16T06:32:04.385Z,-3.89
2023-03-16T06:34:32.690Z,-3.87
2023-03-16T06:37:00.708Z,-3.87
2023-03-16T06:39:30.243Z,-3.84
2023-03-16T06:41:58.365Z,-3.81
2023-03-16T06:44:26.678Z,-3.79
2023-03-16T06:47:01.173Z,-3.76
2023-03-16T06:49:29.709Z,-3.72
2023-03-16T06:51:58.624Z,-3.68
2023-03-16T06:54:27.226Z,-3.63
2023-03-16T06:56:56.612Z,-3.58
2023-03-16T06:59:24.730Z,-3.51
2023-03-16T07:01:52.775Z,-3.44
2023-03-16T07:04:20.766Z,-3.36
2023-03-16T07:06:48.750Z,-3.26
2023-03-16T07:09:17.718Z,-3.16
2023-03-16T07:11:46.874Z,-3.06
2023-03-16T07:14:16.658Z,-2.95
2023-03-16T07:16:45.063Z,-2.83
2023-03-16T07:19:13.024Z,-2.74
2023-03-16T07:21:43.176Z,-2.66
2023-03-16T07:24:16.613Z,-2.55
2023-03-16T07:26:44.729Z,-2.47
2023-03-16T07:29:18.451Z,-2.41
2023-03-16T07:31:46.545Z,-2.31
2023-03-16T07:34:20.045Z,-2.19
2023-03-16T07:36:53.661Z,-2.08
2023-03-16T07:39:24.381Z,-1.97
2023-03-16T07:41:58.701Z,-1.83
2023-03-16T07:44:40.145Z,-1.67
2023-03-16T07:47:08.140Z,-1.52
2023-03-16T07:49:36.156Z,-1.38
2023-03-16T07:52:04.024Z,-1.23
2023-03-16T07:54:40.206Z,-1.06
2023-03-16T07:57:10.004Z,-0.88
2023-03-16T07:59:45.804Z,-0.71
2023-03-16T08:02:18.241Z,-0.54
2023-03-16T08:04:46.882Z,-0.40
2023-03-16T08:07:17.245Z,-0.25
2023-03-16T08:10:01.967Z,-0.09
2023-03-16T08:12:41.927Z,0.06
2023-03-16T08:15:15.682Z,0.16
2023-03-16T08:17:45.684Z,0.28
2023-03-16T08:20:20.180Z,0.43
2023-03-16T08:22:49.802Z,0.55
2023-03-16T08:25:21.645Z,0.68
2023-03-16T08:27:59.586Z,0.83
2023-03-16T08:30:35.413Z,1.00
2023-03-16T08:33:26.453Z,1.20
2023-03-16T08:35:58.413Z,1.36
2023-03-16T08:38:26.525Z,1.52
2023-03-16T08:40:55.071Z,1.70
2023-03-16T08:43:24.341Z,1.89
2023-03-16T08:45:56.547Z,2.05
2023-03-16T08:48:29.962Z,2.20
2023-03-16T08:50:58.153Z,2.39
2023-03-16T08:53:31.035Z,2.56
2023-03-16T08:56:07.893Z,2.68
2023-03-16T08:58:39.033Z,2.84
2023-03-16T09:01:12.752Z,3.01
2023-03-16T09:03:42.773Z,3.17
2023-03-16T09:06:13.373Z,3.32
2023-03-16T09:08:44.333Z,3.48
2023-03-16T09:11:15.337Z,3.64
2023-03-16T09:13:44.873Z,3.78
2023-03-16T09:16:15.931Z,3.93
2023-03-16T09:18:44.406Z,4.08
2023-03-16T09:21:13.954Z,4.23
2023-03-16T09:23:43.068Z,4.34
2023-03-16T09:26:12.639Z,4.46
2023-03-16T09:28:42.483Z,4.62
2023-03-16T09:31:16.734Z,4.68
2023-03-16T09:33:48.834Z,4.76
2023-03-16T09:36:17.720Z,4.87
2023-03-16T09:38:46.209Z,5.01
2023-03-16T09:41:32.040Z,5.16
2023-03-16T09:44:10.893Z,5.25
2023-03-16T09:46:43.866Z,5.31
2023-03-16T09:49:17.676Z,5.39
2023-03-16T09:51:52.382Z,5.45
2023-03-16T09:54:28.695Z,5.55
2023-03-16T09:57:01.546Z,5.60
2023-03-16T09:59:29.845Z,5.68
2023-03-16T10:02:12.155Z,5.81
2023-03-16T10:04:50.653Z,5.93
2023-03-16T10:07:36.568Z,6.05
2023-03-16T10:10:17.126Z,6.16
2023-03-16T10:12:51.506Z,6.26
2023-03-16T10:15:23.872Z,6.37
2023-03-16T10:17:58.025Z,6.48
2023-03-16T10:20:33.288Z,6.47
2023-03-16T10:23:10.964Z,6.47
2023-03-16T10:25:44.907Z,6.55
2023-03-16T10:28:16.906Z,6.68
2023-03-16T10:30:46.075Z,6.77
2023-03-16T10:33:26.028Z,6.83
2023-03-16T10:36:02.765Z,6.83
2023-03-16T10:38:38.762Z,6.90
2023-03-16T10:41:24.299Z,7.03
2023-03-16T10:43:54.586Z,7.08
2023-03-16T10:46:23.589Z,7.17
2023-03-16T10:48:59.834Z,7.26
2023-03-16T10:51:31.569Z,7.34
2023-03-16T10:54:10.722Z,7.42
2023-03-16T10:56:38.772Z,7.40
2023-03-16T10:59:30.719Z,7.36
2023-03-16T11:02:01.484Z,7.35
2023-03-16T11:04:36.051Z,7.39
2023-03-16T11:07:09.758Z,7.43
2023-03-16T11:09:40.341Z,7.42
2023-03-16T11:12:17.331Z,7.51
2023-03-16T11:14:46.750Z,7.61
2023-03-16T11:17:19.207Z,7.73
2023-03-16T11:19:53.161Z,7.79
2023-03-16T11:22:25.611Z,7.94
2023-03-16T11:25:02.746Z,8.03
2023-03-16T11:27:36.976Z,8.14
2023-03-16T11:30:11.630Z,8.18
2023-03-16T11:32:42.128Z,8.17
2023-03-16T11:35:18.429Z,8.20
2023-03-16T11:38:09.433Z,8.33
2023-03-16T11:40:47.439Z,8.41
2023-03-16T11:43:34.421Z,8.53
2023-03-16T11:46:12.866Z,8.61
2023-03-16T11:48:46.473Z,8.70
2023-03-16T11:51:28.088Z,8.74
2023-03-16T11:54:09.628Z,8.77
2023-03-16T11:56:43.370Z,8.88
2023-03-16T11:59:39.620Z,9.04
2023-03-16T12:02:30.916Z,9.07
2023-03-16T12:05:21.492Z,9.11
2023-03-16T12:08:04.610Z,9.28
2023-03-16T12:10:39.699Z,9.40
2023-03-16T12:13:30.576Z,9.60
2023-03-16T12:16:05.817Z,9.73
2023-03-16T12:18:43.876Z,9.88
2023-03-16T12:21:16.354Z,10.02
2023-03-16T12:24:00.436Z,10.15
2023-03-16T12:26:35.532Z,10.30
2023-03-16T12:29:13.439Z,10.32
2023-03-16T12:31:48.484Z,10.43
2023-03-16T12:34:26.961Z,10.43
2023-03-16T12:37:18.241Z,10.48
2023-03-16T12:39:58.252Z,10.58
2023-03-16T12:42:39.891Z,10.56
2023-03-16T12:45:16.283Z,10.56
2023-03-16T12:47:51.079Z,10.57
2023-03-16T12:50:20.743Z,10.60
2023-03-16T12:52:50.788Z,10.61
2023-03-16T12:55:21.419Z,10.59
2023-03-16T12:57:59.023Z,10.53
2023-03-16T13:00:36.994Z,10.37
2023-03-16T13:03:07.280Z,10.44
2023-03-16T13:05:37.167Z,10.55
2023-03-16T13:08:09.098Z,10.48
2023-03-16T13:10:38.740Z,10.51
2023-03-16T13:13:14.958Z,10.52
2023-03-16T13:15:45.192Z,10.60
2023-03-16T13:18:24.117Z,10.69
2023-03-16T13:20:58.187Z,10.71
2023-03-16T13:23:28.942Z,10.66
2023-03-16T13:26:15.139Z,10.68
2023-03-16T13:28:51.103Z,10.79
2023-03-16T13:31:27.240Z,10.90
2023-03-16T13:34:00.049Z,10.94
2023-03-16T13:36:29.974Z,10.88
2023-03-16T13:39:04.334Z,10.78
2023-03-16T13:41:32.490Z,10.74
2023-03-16T13:44:02.306Z,10.68
2023-03-16T13:46:31.909Z,10.65
2023-03-16T13:49:02.131Z,10.70
2023-03-16T13:51:34.709Z,10.72
2023-03-16T13:54:06.375Z,10.69
2023-03-16T13:56:34.834Z,10.63
2023-03-16T13:59:04.177Z,10.75
2023-03-16T14:01:33.486Z,10.94
2023-03-16T14:04:09.021Z,10.95
2023-03-16T14:06:38.625Z,10.89
2023-03-16T14:09:09.605Z,10.91
2023-03-16T14:11:37.513Z,10.90
2023-03-16T14:14:16.294Z,10.84
2023-03-16T14:16:45.762Z,10.80
2023-03-16T14:19:19.254Z,10.79
2023-03-16T14:21:49.808Z,10.77
2023-03-16T14:24:30.813Z,10.80
2023-03-16T14:26:59.055Z,10.82
2023-03-16T14:29:31.498Z,10.83
2023-03-16T14:32:00.948Z,10.81
2023-03-16T14:34:31.625Z,10.77
2023-03-16T14:37:09.926Z,10.78
2023-03-16T14:39:40.369Z,10.81
2023-03-16T14:42:19.877Z,10.81
2023-03-16T14:44:49.823Z,10.76
2023-03-16T14:47:24.079Z,10.64
2023-03-16T14:49:52.373Z,10.47
2023-03-16T14:52:27.226Z,10.29
2023-03-16T14:54:55.665Z,10.14
2023-03-16T14:57:24.503Z,9.97
2023-03-16T14:59:54.720Z,9.82
2023-03-16T15:02:28.527Z,9.65
2023-03-16T15:04:58.232Z,9.52
2023-03-16T15:07:28.572Z,9.39
2023-03-16T15:10:09.860Z,9.27
2023-03-16T15:12:37.961Z,9.16
2023-03-16T15:15:18.903Z,9.08
2023-03-16T15:17:47.715Z,8.98
2023-03-16T15:20:17.672Z,8.90
2023-03-16T15:22:46.760Z,8.83
2023-03-16T15:25:36.250Z,8.73
2023-03-16T15:28:11.491Z,8.69
2023-03-16T15:30:41.268Z,8.66
2023-03-16T15:33:09.954Z,8.61
2023-03-16T15:35:38.021Z,8.56
2023-03-16T15:38:11.948Z,8.51
2023-03-16T15:40:40.834Z,8.46
2023-03-16T15:43:12.388Z,8.43
2023-03-16T15:45:41.501Z,8.38
2023-03-16T15:48:11.023Z,8.33
2023-03-16T15:50:40.928Z,8.27
2023-03-16T15:53:29.221Z,8.21
2023-03-16T15:56:03.111Z,8.16
2023-03-16T15:58:32.631Z,8.10
2023-03-16T16:01:03.820Z,8.04
2023-03-16T16:03:33.753Z,7.99
2023-03-16T16:06:02.221Z,7.95
2023-03-16T16:08:30.095Z,7.88
2023-03-16T16:10:58.390Z,7.82
2023-03-16T16:13:43.021Z,7.77
2023-03-16T16:16:15.903Z,7.73
2023-03-16T16:18:44.386Z,7.68
2023-03-16T16:21:17.999Z,7.65
2023-03-16T16:23:45.928Z,7.63
2023-03-16T16:26:26.331Z,7.58
2023-03-16T16:28:58.578Z,7.56
2023-03-16T16:31:29.964Z,7.52
2023-03-16T16:33:58.975Z,7.49
2023-03-16T16:36:27.700Z,7.43
2023-03-16T16:38:57.106Z,7.38
2023-03-16T16:41:29.272Z,7.36
2023-03-16T16:43:58.279Z,7.32
2023-03-16T16:46:29.706Z,7.29
2023-03-16T16:49:01.940Z,7.22
2023-03-16T16:51:31.220Z,7.20
2023-03-16T16:54:00.791Z,7.15
2023-03-16T16:56:31.808Z,7.09
2023-03-16T16:59:02.544Z,7.05
2023-03-16T17:01:35.077Z,7.02
2023-03-16T17:04:03.625Z,6.96
2023-03-16T17:06:31.446Z,6.91
2023-03-16T17:08:59.267Z,6.89
2023-03-16T17:11:31.690Z,6.85
2023-03-16T17:14:01.675Z,6.84
2023-03-16T17:16:33.115Z,6.79
2023-03-16T17:19:01.469Z,6.74
2023-03-16T17:21:31.456Z,6.71
2023-03-16T17:24:00.403Z,6.68
2023-03-16T17:26:31.415Z,6.64
2023-03-16T17:29:02.416Z,6.60
2023-03-16T17:31:35.238Z,6.57
2023-03-16T17:34:07.591Z,6.54
2023-03-16T17:36:35.330Z,6.53
2023-03-16T17:39:03.377Z,6.50
2023-03-16T17:41:33.142Z,6.47
2023-03-16T17:44:07.013Z,6.43
2023-03-16T17:46:36.502Z,6.42
2023-03-16T17:49:12.309Z,6.40
2023-03-16T17:51:40.630Z,6.38
2023-03-16T17:54:08.448Z,6.35
2023-03-16T17:56:37.272Z,6.32
2023-03-16T17:59:07.954Z,6.30
2023-03-16T18:01:39.110Z,6.27
2023-03-16T18:04:10.543Z,6.25
2023-03-16T18:06:38.631Z,6.22
2023-03-16T18:09:09.796Z,6.22
2023-03-16T18:11:41.303Z,6.19
2023-03-16T18:14:21.663Z,6.17
2023-03-16T18:16:50.856Z,6.13
2023-03-16T18:19:23.808Z,6.09
2023-03-16T18:21:51.650Z,6.06
2023-03-16T18:24:22.148Z,6.02
2023-03-16T18:26:49.972Z,5.99
2023-03-16T18:29:18.318Z,5.95
2023-03-16T18:31:47.911Z,5.92
2023-03-16T18:34:23.836Z,5.87
2023-03-16T18:36:55.981Z,5.84
2023-03-16T18:39:23.926Z,5.77
2023-03-16T18:41:52.619Z,5.73
2023-03-16T18:44:23.385Z,5.70
2023-03-16T18:46:53.731Z,5.66
2023-03-16T18:49:27.909Z,5.60
2023-03-16T18:51:56.088Z,5.57
2023-03-16T18:54:26.380Z,5.53
2023-03-16T18:56:54.839Z,5.49
2023-03-16T18:59:22.721Z,5.44
2023-03-16T19:01:50.626Z,5.40
2023-03-16T19:04:21.585Z,5.38
2023-03-16T19:06:53.480Z,5.35
2023-03-16T19:09:24.152Z,5.32
2023-03-16T19:11:52.636Z,5.27
2023-03-16T19:14:22.834Z,5.24
2023-03-16T19:16:50.996Z,5.19
2023-03-16T19:19:21.328Z,5.13
2023-03-16T19:21:51.752Z,5.12
2023-03-16T19:24:23.931Z,5.07
2023-03-16T19:26:52.095Z,5.03
2023-03-16T19:29:30.397Z,5.00
2023-03-16T19:31:59.166Z,4.95
2023-03-16T19:34:27.266Z,4.92
2023-03-16T19:36:56.349Z,4.90
2023-03-16T19:39:25.895Z,4.85
2023-03-16T19:41:57.531Z,4.78
2023-03-16T19:44:28.166Z,4.75
2023-03-16T19:46:56.182Z,4.71
2023-03-16T19:49:27.137Z,4.65
2023-03-16T19:51:58.840Z,4.61
2023-03-16T19:54:28.755Z,4.58
2023-03-16T19:56:59.176Z,4.55
2023-03-16T19:59:31.354Z,4.53
2023-03-16T20:01:59.229Z,4.50
2023-03-16T20:04:28.057Z,4.46
2023-03-16T20:06:57.198Z,4.42
2023-03-16T20:09:25.031Z,4.39
2023-03-16T20:11:52.830Z,4.38
2023-03-16T20:14:24.597Z,4.37
2023-03-16T20:16:53.194Z,4.34
2023-03-16T20:19:22.368Z,4.30
2023-03-16T20:21:50.433Z,4.25
2023-03-16T20:24:22.263Z,4.22
2023-03-16T20:26:52.449Z,4.19
2023-03-16T20:29:25.201Z,4.14
2023-03-16T20:31:52.967Z,4.10
2023-03-16T20:34:23.775Z,4.06
2023-03-16T20:36:51.519Z,4.03
2023-03-16T20:39:21.020Z,3.99
2023-03-16T20:41:49.241Z,3.96
2023-03-16T20:44:20.158Z,3.93
2023-03-16T20:46:48.457Z,3.91
2023-03-16T20:49:30.990Z,3.89
2023-03-16T20:52:02.618Z,3.92
2023-03-16T20:54:33.018Z,3.89
2023-03-16T20:57:02.367Z,3.89
2023-03-16T20:59:30.431Z,3.88
2023-03-16T21:01:58.490Z,3.86
2023-03-16T21:04:28.864Z,3.84
2023-03-16T21:06:57.940Z,3.81
2023-03-16T21:09:25.757Z,3.80
2023-03-16T21:11:54.868Z,3.77
2023-03-16T21:14:24.590Z,3.75
2023-03-16T21:16:54.201Z,3.73
2023-03-16T21:19:24.864Z,3.73
2023-03-16T21:21:53.187Z,3.71
2023-03-16T21:24:21.945Z,3.69
2023-03-16T21:26:49.868Z,3.67
2023-03-16T21:29:21.927Z,3.65
2023-03-16T21:31:50.017Z,3.64
2023-03-16T21:34:25.189Z,3.62
2023-03-16T21:36:53.650Z,3.63
2023-03-16T21:39:23.855Z,3.62
2023-03-16T21:41:53.972Z,3.61
2023-03-16T21:44:24.910Z,3.60
2023-03-16T21:46:52.870Z,3.58
2023-03-16T21:49:20.947Z,3.54
2023-03-16T21:51:50.307Z,3.49
2023-03-16T21:54:19.829Z,3.47
2023-03-16T21:56:51.730Z,3.44
2023-03-16T21:59:20.148Z,3.42
2023-03-16T22:02:01.136Z,3.38
2023-03-16T22:04:30.936Z,3.35
2023-03-16T22:06:59.134Z,3.32
2023-03-16T22:09:30.122Z,3.32
2023-03-16T22:11:58.433Z,3.31
2023-03-16T22:14:27.510Z,3.31
2023-03-16T22:16:57.486Z,3.33
2023-03-16T22:19:27.184Z,3.33
2023-03-16T22:21:56.659Z,3.32
2023-03-16T22:24:27.092Z,3.29
2023-03-16T22:26:56.641Z,3.29
2023-03-16T22:29:28.480Z,3.26
2023-03-16T22:32:04.476Z,3.30
2023-03-16T22:34:42.423Z,3.30
2023-03-16T22:37:13.777Z,3.30
2023-03-16T22:39:41.947Z,3.29
2023-03-16T22:42:27.965Z,3.30
2023-03-16T22:44:55.959Z,3.28
2023-03-16T22:47:27.972Z,3.28
2023-03-16T22:49:56.189Z,3.26
2023-03-16T22:52:29.171Z,3.25
2023-03-16T22:54:57.558Z,3.25
2023-03-16T22:57:25.740Z,3.25
2023-03-16T22:59:54.184Z,3.24
2023-03-16T23:02:26.267Z,3.27
2023-03-16T23:04:54.218Z,3.24
2023-03-16T23:07:22.728Z,3.24
2023-03-16T23:09:50.896Z,3.24
2023-03-16T23:12:22.086Z,3.21
2023-03-16T23:14:49.893Z,3.20
2023-03-16T23:17:19.404Z,3.21
2023-03-16T23:19:49.347Z,3.21
2023-03-16T23:22:19.912Z,3.17
2023-03-16T23:24:47.788Z,3.17
2023-03-16T23:27:19.198Z,3.17
2023-03-16T23:29:47.820Z,3.15
2023-03-16T23:32:17.143Z,3.13
2023-03-16T23:34:46.048Z,3.13
2023-03-16T23:37:15.824Z,3.12
2023-03-16T23:39:43.657Z,3.12
2023-03-16T23:42:11.658Z,3.11
2023-03-16T23:44:39.878Z,3.09
2023-03-16T23:47:10.616Z,3.09
2023-03-16T23:49:42.153Z,3.06
2023-03-16T23:52:13.497Z,3.04
2023-03-16T23:54:43.991Z,3.04
2023-03-16T23:57:12.177Z,3.03
2023-03-16T23:59:39.918Z,3.03
